PWSweather.com
Personal Weather Stations
Station Observations
LAKENACI1
Oak Shores Lake Nacimiento, Bradley, CA 93426

Oak Shores Lake NacimientoBradley, CA 93426

Lat: 35.749704, Lon: -120.988075

Elevation: 811

Station Type: Rain wise MK-III

https://www.rainwise.net/weather/JMConstructionOS

Latest ConditionsUpdated 5:21:00 AM PST Thursday, Nov 14, 2019
Currently Today's Max Today's Min Today's Average
Temperature 47.5°F8.6°C 49.2°F9.6°C 47.0°F8.3°C 47.8°F8.8°C
Dew Point 45.3°F7.4°C 46.2°F7.9°C 43.2°F6.2°C 44.8°F7.1°C
Winds Calm Calm 2.8 mph -4.5 kmh - - 0.3 mph 0.5 kmh
Wind Gusts -- -- - -
Humidity 92% 93% 85% 89%
Pressure 29.20 in988.8 mb 29.20 in988.8 mb 29.15 in987.1 mb -
Hour Temp Dew Point Humidity Winds Wind Gusts Pressure Precip Precip Rate Daily Precip Total
05:21 AM 47.5°F8.6°C 45.3°F7.4°C 92% Calm Calm -- 29.20 in988.8 mb 0.00 in0.0 mm 0.00 in0.0 mm 0.00 in0.0 mm
05:16 AM 47.7°F8.7°C 45.5°F7.5°C 92% Calm Calm -- 29.19 in988.5 mb 0.00 in0.0 mm 0.00 in0.0 mm 0.00 in0.0 mm
05:10 AM 47.7°F8.7°C 45.5°F7.5°C 92% Calm Calm -- 29.19 in988.5 mb 0.00 in0.0 mm 0.00 in0.0 mm 0.00 in0.0 mm
05:05 AM 47.7°F8.7°C 45.5°F7.5°C 92% Calm Calm -- 29.19 in988.5 mb 0.00 in0.0 mm 0.00 in0.0 mm 0.00 in0.0 mm
04:59 AM 47.6°F8.7°C 45.4°F7.4°C 92% Calm Calm -- 29.19 in988.5 mb 0.00 in0.0 mm 0.00 in0.0 mm 0.00 in0.0 mm
04:53 AM 47.5°F8.6°C 45.6°F7.6°C 93% Calm Calm -- 29.19 in988.5 mb 0.00 in0.0 mm 0.00 in0.0 mm 0.00 in0.0 mm
04:48 AM 47.5°F8.6°C 45.3°F7.4°C 92% Calm Calm -- 29.18 in988.1 mb 0.00 in0.0 mm 0.00 in0.0 mm 0.00 in0.0 mm
04:42 AM 47.5°F8.6°C 45.3°F7.4°C 92% Calm Calm -- 29.17 in987.8 mb 0.00 in0.0 mm 0.00 in0.0 mm 0.00 in0.0 mm
04:37 AM 47.5°F8.6°C 45.3°F7.4°C 92% 0.4 mph SSE0.6 kmh SSE -- 29.19 in988.5 mb 0.00 in0.0 mm 0.00 in0.0 mm 0.00 in0.0 mm
04:31 AM 47.6°F8.7°C 45.7°F7.6°C 93% 0.3 mph SE0.5 kmh SE -- 29.18 in988.1 mb 0.00 in0.0 mm 0.00 in0.0 mm 0.00 in0.0 mm
04:25 AM 47.7°F8.7°C 45.5°F7.5°C 92% 2.5 mph SSE4.0 kmh SSE -- 29.18 in988.1 mb 0.00 in0.0 mm 0.00 in0.0 mm 0.00 in0.0 mm
04:20 AM 47.7°F8.7°C 45.5°F7.5°C 92% 0.8 mph ESE1.3 kmh ESE -- 29.17 in987.8 mb 0.00 in0.0 mm 0.00 in0.0 mm 0.00 in0.0 mm
04:14 AM 47.7°F8.7°C 45.5°F7.5°C 92% 0.1 mph SSE0.2 kmh SSE -- 29.18 in988.1 mb 0.00 in0.0 mm 0.00 in0.0 mm 0.00 in0.0 mm
04:08 AM 47.7°F8.7°C 45.5°F7.5°C 92% Calm Calm -- 29.18 in988.1 mb 0.00 in0.0 mm 0.00 in0.0 mm 0.00 in0.0 mm
04:02 AM 47.8°F8.8°C 45.9°F7.7°C 93% 1.8 mph ESE2.9 kmh ESE -- 29.17 in987.8 mb 0.00 in0.0 mm 0.00 in0.0 mm 0.00 in0.0 mm
03:56 AM 48.0°F8.9°C 46.1°F7.8°C 93% 1.7 mph SSE2.7 kmh SSE -- 29.17 in987.8 mb 0.00 in0.0 mm 0.00 in0.0 mm 0.00 in0.0 mm
03:51 AM 48.0°F8.9°C 46.1°F7.8°C 93% 0.5 mph SE0.8 kmh SE -- 29.18 in988.1 mb 0.00 in0.0 mm 0.00 in0.0 mm 0.00 in0.0 mm
03:45 AM 48.1°F8.9°C 46.2°F7.9°C 93% 1.5 mph SE2.4 kmh SE -- 29.18 in988.1 mb 0.00 in0.0 mm 0.00 in0.0 mm 0.00 in0.0 mm
03:39 AM 48.1°F8.9°C 45.9°F7.7°C 92% Calm Calm -- 29.18 in988.1 mb 0.00 in0.0 mm 0.00 in0.0 mm 0.00 in0.0 mm
03:34 AM 48.2°F9.0°C 45.7°F7.6°C 91% Calm Calm -- 29.17 in987.8 mb 0.00 in0.0 mm 0.00 in0.0 mm 0.00 in0.0 mm
03:28 AM 48.2°F9.0°C 45.7°F7.6°C 91% Calm Calm -- 29.17 in987.8 mb 0.00 in0.0 mm 0.00 in0.0 mm 0.00 in0.0 mm
03:23 AM 48.2°F9.0°C 46.0°F7.8°C 92% 1.1 mph ESE1.8 kmh ESE -- 29.17 in987.8 mb 0.00 in0.0 mm 0.00 in0.0 mm 0.00 in0.0 mm
03:17 AM 48.2°F9.0°C 46.0°F7.8°C 92% 0.4 mph ENE0.6 kmh ENE -- 29.17 in987.8 mb 0.00 in0.0 mm 0.00 in0.0 mm 0.00 in0.0 mm
03:12 AM 48.2°F9.0°C 45.7°F7.6°C 91% Calm Calm -- 29.17 in987.8 mb 0.00 in0.0 mm 0.00 in0.0 mm 0.00 in0.0 mm
03:06 AM 48.2°F9.0°C 45.7°F7.6°C 91% Calm Calm -- 29.17 in987.8 mb 0.00 in0.0 mm 0.00 in0.0 mm 0.00 in0.0 mm
03:00 AM 48.2°F9.0°C 45.4°F7.4°C 90% 1.5 mph ENE2.4 kmh ENE -- 29.16 in987.5 mb 0.00 in0.0 mm 0.00 in0.0 mm 0.00 in0.0 mm
02:54 AM 48.2°F9.0°C 45.4°F7.4°C 90% 2.8 mph ENE4.5 kmh ENE -- 29.16 in987.5 mb 0.00 in0.0 mm 0.00 in0.0 mm 0.00 in0.0 mm
02:49 AM 48.1°F8.9°C 45.0°F7.2°C 89% 0.2 mph ENE0.3 kmh ENE -- 29.16 in987.5 mb 0.00 in0.0 mm 0.00 in0.0 mm 0.00 in0.0 mm
02:43 AM 48.0°F8.9°C 44.9°F7.2°C 89% Calm Calm -- 29.16 in987.5 mb 0.00 in0.0 mm 0.00 in0.0 mm 0.00 in0.0 mm
02:37 AM 47.7°F8.7°C 44.3°F6.8°C 88% Calm Calm -- 29.17 in987.8 mb 0.00 in0.0 mm 0.00 in0.0 mm 0.00 in0.0 mm
02:31 AM 47.3°F8.5°C 43.6°F6.4°C 87% 1.1 mph W1.8 kmh W -- 29.16 in987.5 mb 0.00 in0.0 mm 0.00 in0.0 mm 0.00 in0.0 mm
02:25 AM 47.2°F8.4°C 43.5°F6.4°C 87% Calm Calm -- 29.16 in987.5 mb 0.00 in0.0 mm 0.00 in0.0 mm 0.00 in0.0 mm
02:20 AM 47.2°F8.4°C 43.8°F6.6°C 88% Calm Calm -- 29.16 in987.5 mb 0.00 in0.0 mm 0.00 in0.0 mm 0.00 in0.0 mm
02:14 AM 47.2°F8.4°C 43.8°F6.6°C 88% Calm Calm -- 29.16 in987.5 mb 0.00 in0.0 mm 0.00 in0.0 mm 0.00 in0.0 mm
02:08 AM 47.1°F8.4°C 44.0°F6.7°C 89% Calm Calm -- 29.16 in987.5 mb 0.00 in0.0 mm 0.00 in0.0 mm 0.00 in0.0 mm
02:02 AM 47.2°F8.4°C 44.1°F6.7°C 89% Calm Calm -- 29.16 in987.5 mb 0.00 in0.0 mm 0.00 in0.0 mm 0.00 in0.0 mm
01:56 AM 47.3°F8.5°C 43.9°F6.6°C 88% Calm Calm -- 29.16 in987.5 mb 0.00 in0.0 mm 0.00 in0.0 mm 0.00 in0.0 mm
01:50 AM 47.3°F8.5°C 43.9°F6.6°C 88% 0.1 mph E0.2 kmh E -- 29.16 in987.5 mb 0.00 in0.0 mm 0.00 in0.0 mm 0.00 in0.0 mm
01:44 AM 47.3°F8.5°C 43.9°F6.6°C 88% Calm Calm -- 29.16 in987.5 mb 0.00 in0.0 mm 0.00 in0.0 mm 0.00 in0.0 mm
01:39 AM 47.2°F8.4°C 43.8°F6.6°C 88% Calm Calm -- 29.16 in987.5 mb 0.00 in0.0 mm 0.00 in0.0 mm 0.00 in0.0 mm
01:33 AM 47.0°F8.3°C 43.6°F6.4°C 88% Calm Calm -- 29.16 in987.5 mb 0.00 in0.0 mm 0.00 in0.0 mm 0.00 in0.0 mm
01:28 AM 47.0°F8.3°C 43.3°F6.3°C 87% Calm Calm -- 29.16 in987.5 mb 0.00 in0.0 mm 0.00 in0.0 mm 0.00 in0.0 mm
01:23 AM 47.1°F8.4°C 43.7°F6.5°C 88% Calm Calm -- 29.16 in987.5 mb 0.00 in0.0 mm 0.00 in0.0 mm 0.00 in0.0 mm
01:17 AM 47.2°F8.4°C 43.2°F6.2°C 86% Calm Calm -- 29.16 in987.5 mb 0.00 in0.0 mm 0.00 in0.0 mm 0.00 in0.0 mm
01:11 AM 47.4°F8.6°C 43.4°F6.3°C 86% Calm Calm -- 29.16 in987.5 mb 0.00 in0.0 mm 0.00 in0.0 mm 0.00 in0.0 mm
01:06 AM 47.7°F8.7°C 44.0°F6.7°C 87% 0.5 mph ESE0.8 kmh ESE -- 29.16 in987.5 mb 0.00 in0.0 mm 0.00 in0.0 mm 0.00 in0.0 mm
01:00 AM 47.7°F8.7°C 43.7°F6.5°C 86% Calm Calm -- 29.16 in987.5 mb 0.00 in0.0 mm 0.00 in0.0 mm 0.00 in0.0 mm
12:54 AM 47.8°F8.8°C 43.5°F6.4°C 85% Calm Calm -- 29.15 in987.1 mb 0.00 in0.0 mm 0.00 in0.0 mm 0.00 in0.0 mm
12:48 AM 48.1°F8.9°C 43.8°F6.6°C 85% Calm Calm -- 29.15 in987.1 mb 0.00 in0.0 mm 0.00 in0.0 mm 0.00 in0.0 mm
12:43 AM 48.2°F9.0°C 44.2°F6.8°C 86% Calm Calm -- 29.16 in987.5 mb 0.00 in0.0 mm 0.00 in0.0 mm 0.00 in0.0 mm
12:38 AM 48.2°F9.0°C 43.9°F6.6°C 85% Calm Calm -- 29.15 in987.1 mb 0.00 in0.0 mm 0.00 in0.0 mm 0.00 in0.0 mm
12:32 AM 48.2°F9.0°C 44.2°F6.8°C 86% Calm Calm -- 29.15 in987.1 mb 0.00 in0.0 mm 0.00 in0.0 mm 0.00 in0.0 mm
12:27 AM 48.5°F9.2°C 44.5°F6.9°C 86% Calm Calm -- 29.15 in987.1 mb 0.00 in0.0 mm 0.00 in0.0 mm 0.00 in0.0 mm
12:22 AM 48.7°F9.3°C 44.4°F6.9°C 85% Calm Calm -- 29.15 in987.1 mb 0.00 in0.0 mm 0.00 in0.0 mm 0.00 in0.0 mm
12:16 AM 48.8°F9.3°C 44.5°F6.9°C 85% Calm Calm -- 29.15 in987.1 mb 0.00 in0.0 mm 0.00 in0.0 mm 0.00 in0.0 mm
12:10 AM 49.0°F9.4°C 44.7°F7.1°C 85% Calm Calm -- 29.15 in987.1 mb 0.00 in0.0 mm 0.00 in0.0 mm 0.00 in0.0 mm
12:05 AM 49.2°F9.6°C 45.2°F7.3°C 86% Calm Calm -- 29.15 in987.1 mb 0.00 in0.0 mm 0.00 in0.0 mm 0.00 in0.0 mm